createdAt,value
2022-11-25T00:00:48.921Z,5.75
2022-11-25T00:01:52.535Z,6.50
2022-11-25T00:02:56.597Z,7.00
2022-11-25T00:03:59.790Z,7.00
2022-11-25T00:05:03.278Z,6.00
2022-11-25T00:06:06.971Z,7.50
2022-11-25T00:07:10.285Z,7.50
2022-11-25T00:08:13.645Z,6.50
2022-11-25T00:09:17.231Z,6.00
2022-11-25T00:10:20.665Z,5.00
2022-11-25T00:11:24.228Z,5.50
2022-11-25T00:12:27.801Z,6.50
2022-11-25T00:13:31.716Z,5.75
2022-11-25T00:14:35.751Z,5.00
2022-11-25T00:15:39.502Z,3.75
2022-11-25T00:16:48.159Z,5.50
2022-11-25T00:17:48.119Z,5.00
2022-11-25T00:18:51.604Z,4.00
2022-11-25T00:19:55.196Z,4.50
2022-11-25T00:20:58.481Z,5.50
2022-11-25T00:22:02.277Z,5.00
2022-11-25T00:23:05.565Z,5.00
2022-11-25T00:24:10.074Z,4.50
2022-11-25T00:25:13.563Z,4.25
2022-11-25T00:26:17.050Z,4.00
2022-11-25T00:27:21.369Z,4.50
2022-11-25T00:28:24.645Z,4.00
2022-11-25T00:29:28.425Z,5.00
2022-11-25T00:30:31.751Z,4.00
2022-11-25T00:31:35.245Z,4.00
2022-11-25T00:32:38.804Z,4.50
2022-11-25T00:33:42.195Z,5.75
2022-11-25T00:34:45.683Z,5.00
2022-11-25T00:35:49.063Z,6.00
2022-11-25T00:36:52.557Z,5.50
2022-11-25T00:37:55.823Z,4.25
2022-11-25T00:38:58.820Z,5.50
2022-11-25T00:40:02.826Z,5.00
2022-11-25T00:41:08.764Z,4.25
2022-11-25T00:42:12.050Z,5.00
2022-11-25T00:43:15.640Z,5.50
2022-11-25T00:44:19.341Z,5.00
2022-11-25T00:45:23.303Z,5.00
2022-11-25T00:46:26.824Z,4.50
2022-11-25T00:47:30.313Z,4.50
2022-11-25T00:48:34.432Z,3.75
2022-11-25T00:49:37.956Z,4.75
2022-11-25T00:50:41.708Z,6.50
2022-11-25T00:51:45.397Z,6.00
2022-11-25T00:52:48.990Z,6.50
2022-11-25T00:53:57.455Z,6.50
2022-11-25T00:54:57.602Z,5.25
2022-11-25T00:56:01.197Z,5.00
2022-11-25T00:57:04.997Z,6.75
2022-11-25T00:58:08.480Z,5.75
2022-11-25T00:59:11.791Z,6.25
2022-11-25T01:00:15.150Z,5.75
2022-11-25T01:01:18.583Z,6.50
2022-11-25T01:02:22.101Z,6.75
2022-11-25T01:03:26.333Z,6.00
2022-11-25T01:04:30.338Z,5.75
2022-11-25T01:05:33.929Z,6.00
2022-11-25T01:06:37.209Z,5.25
2022-11-25T01:07:40.830Z,6.00
2022-11-25T01:08:44.299Z,6.50
2022-11-25T01:09:47.574Z,9.00
2022-11-25T01:10:51.073Z,7.00
2022-11-25T01:11:54.866Z,7.50
2022-11-25T01:12:58.564Z,8.00
2022-11-25T01:14:02.253Z,7.00
2022-11-25T01:15:05.436Z,6.50
2022-11-25T01:16:10.364Z,7.50
2022-11-25T01:17:13.437Z,7.25
2022-11-25T01:18:17.128Z,6.25
2022-11-25T01:19:21.133Z,7.00
2022-11-25T01:20:24.415Z,6.75
2022-11-25T01:21:28.012Z,7.00
2022-11-25T01:23:52.494Z,6.50
2022-11-25T01:24:56.198Z,7.50
2022-11-25T01:25:59.572Z,7.50
2022-11-25T01:27:03.171Z,6.75
2022-11-25T01:28:06.959Z,6.00
2022-11-25T01:29:10.347Z,6.50
2022-11-25T01:30:13.952Z,6.00
2022-11-25T01:31:17.566Z,7.75
2022-11-25T01:32:21.031Z,6.50
2022-11-25T01:33:24.609Z,6.00
2022-11-25T01:34:28.313Z,5.00
2022-11-25T01:35:31.601Z,5.00
2022-11-25T01:36:35.185Z,4.25
2022-11-25T01:37:47.064Z,5.00
2022-11-25T01:38:50.861Z,6.50
2022-11-25T01:39:54.662Z,4.50
2022-11-25T01:40:58.667Z,4.75
2022-11-25T01:42:02.979Z,5.00
2022-11-25T01:43:06.868Z,5.50
2022-11-25T01:44:10.876Z,4.50
2022-11-25T01:45:14.575Z,4.50
2022-11-25T01:46:17.981Z,5.50
2022-11-25T01:47:21.743Z,5.00
2022-11-25T01:48:25.238Z,5.75
2022-11-25T01:49:28.623Z,5.00
2022-11-25T01:50:32.413Z,4.75
2022-11-25T01:51:35.610Z,4.50
2022-11-25T01:52:38.888Z,4.60
2022-11-25T01:53:42.277Z,4.00
2022-11-25T01:54:46.078Z,4.50
2022-11-25T01:55:49.553Z,4.50
2022-11-25T01:56:52.956Z,3.75
2022-11-25T01:57:56.635Z,3.00
2022-11-25T01:59:00.535Z,3.50
2022-11-25T02:00:04.027Z,4.50
2022-11-25T02:01:07.565Z,4.25
2022-11-25T02:02:10.834Z,5.75
2022-11-25T02:03:14.694Z,5.50
2022-11-25T02:04:19.409Z,4.50
2022-11-25T02:05:22.715Z,5.00
2022-11-25T02:06:26.297Z,6.00
2022-11-25T02:07:30.357Z,5.50
2022-11-25T02:08:33.687Z,4.25
2022-11-25T02:09:37.379Z,4.00
2022-11-25T02:10:40.558Z,3.50
2022-11-25T02:11:44.049Z,4.25
2022-11-25T02:12:47.841Z,3.00
2022-11-25T02:13:51.225Z,3.50
2022-11-25T02:14:54.821Z,3.50
2022-11-25T02:15:58.299Z,4.50
2022-11-25T02:17:02.136Z,5.00
2022-11-25T02:18:06.729Z,5.00
2022-11-25T02:19:10.411Z,4.50
2022-11-25T02:20:13.793Z,3.50
2022-11-25T02:21:17.216Z,4.00
2022-11-25T02:22:20.780Z,4.25
2022-11-25T02:23:24.784Z,4.50
2022-11-25T02:24:28.399Z,4.50
2022-11-25T02:25:31.654Z,4.50
2022-11-25T02:26:35.038Z,4.00
2022-11-25T02:27:39.057Z,4.00
2022-11-25T02:28:42.630Z,5.00
2022-11-25T02:29:46.116Z,5.25
2022-11-25T02:30:50.026Z,5.00
2022-11-25T02:31:53.566Z,3.50
2022-11-25T02:32:57.095Z,3.00
2022-11-25T02:34:01.507Z,4.00
2022-11-25T02:35:04.839Z,3.25
2022-11-25T02:36:11.962Z,4.00
2022-11-25T02:37:15.352Z,4.50
2022-11-25T02:38:18.753Z,4.00
2022-11-25T02:39:22.738Z,4.00
2022-11-25T02:40:26.132Z,4.25
2022-11-25T02:41:29.510Z,4.75
2022-11-25T02:42:33.925Z,5.00
2022-11-25T02:43:37.622Z,5.50
2022-11-25T02:44:41.313Z,5.50
2022-11-25T02:45:44.752Z,5.00
2022-11-25T02:46:48.194Z,3.75
2022-11-25T02:47:51.880Z,4.50
2022-11-25T02:49:10.791Z,6.50
2022-11-25T02:50:00.207Z,5.00
2022-11-25T02:51:04.312Z,4.00
2022-11-25T02:52:08.094Z,3.75
2022-11-25T02:53:12.197Z,4.50
2022-11-25T02:54:15.844Z,4.50
2022-11-25T02:55:19.169Z,5.00
2022-11-25T02:56:22.765Z,5.50
2022-11-25T02:57:26.665Z,5.00
2022-11-25T02:58:30.280Z,4.00
2022-11-25T02:59:33.743Z,5.00
2022-11-25T03:00:37.230Z,4.75
2022-11-25T03:01:40.816Z,4.50
2022-11-25T03:02:44.545Z,3.00
2022-11-25T03:03:48.310Z,3.00
2022-11-25T03:04:52.131Z,4.00
2022-11-25T03:05:55.803Z,4.25
2022-11-25T03:06:59.801Z,5.00
2022-11-25T03:08:03.599Z,4.25
2022-11-25T03:09:07.190Z,5.00
2022-11-25T03:10:11.095Z,5.00
2022-11-25T03:11:14.668Z,5.00
2022-11-25T03:12:18.378Z,5.75
2022-11-25T03:13:21.763Z,4.00
2022-11-25T03:14:25.380Z,2.50
2022-11-25T03:15:28.951Z,3.50
2022-11-25T03:16:32.447Z,3.50
2022-11-25T03:17:36.029Z,2.75
2022-11-25T03:18:39.636Z,4.00
2022-11-25T03:19:43.730Z,3.00
2022-11-25T03:20:47.623Z,3.25
2022-11-25T03:21:51.313Z,3.75
2022-11-25T03:22:54.947Z,3.75
2022-11-25T03:23:58.185Z,3.75
2022-11-25T03:25:01.885Z,3.00
2022-11-25T03:26:05.171Z,3.50
2022-11-25T03:27:08.588Z,3.75
2022-11-25T03:28:11.953Z,4.00
2022-11-25T03:29:16.171Z,3.50
2022-11-25T03:30:19.540Z,3.50
2022-11-25T03:31:22.949Z,3.75
2022-11-25T03:32:26.101Z,3.50
2022-11-25T03:33:29.905Z,3.25
2022-11-25T03:34:34.627Z,2.25
2022-11-25T03:35:38.204Z,3.75
2022-11-25T03:36:41.772Z,5.25
2022-11-25T03:37:45.718Z,4.00
2022-11-25T03:38:49.188Z,3.50
2022-11-25T03:39:52.983Z,3.75
2022-11-25T03:40:56.172Z,4.75
2022-11-25T03:41:59.764Z,6.00
2022-11-25T03:43:03.360Z,5.00
2022-11-25T03:44:07.047Z,4.00
2022-11-25T03:45:10.432Z,4.00
2022-11-25T03:46:13.690Z,3.50
2022-11-25T03:47:17.001Z,3.75
2022-11-25T03:48:20.098Z,3.50
2022-11-25T03:49:23.779Z,4.00
2022-11-25T03:50:27.196Z,3.25
2022-11-25T03:51:30.847Z,4.00
2022-11-25T03:52:34.645Z,4.00
2022-11-25T03:53:37.830Z,3.50
2022-11-25T03:54:41.218Z,4.50
2022-11-25T03:55:45.324Z,3.00
2022-11-25T03:56:48.942Z,2.00
2022-11-25T03:57:52.222Z,2.00
2022-11-25T03:58:55.702Z,3.00
2022-11-25T03:59:58.965Z,3.00
2022-11-25T04:01:02.411Z,3.50
2022-11-25T04:02:05.661Z,3.00
2022-11-25T04:03:08.822Z,2.00
2022-11-25T04:04:12.517Z,2.00
2022-11-25T04:07:21.293Z,3.50
2022-11-25T04:08:24.635Z,2.50
2022-11-25T04:09:28.324Z,3.00
2022-11-25T04:11:35.808Z,3.00
2022-11-25T04:12:39.722Z,3.00
2022-11-25T04:13:43.023Z,3.50
2022-11-25T04:14:46.385Z,2.00
2022-11-25T04:15:49.799Z,1.50
2022-11-25T04:16:53.327Z,1.50
2022-11-25T04:17:56.666Z,3.00
2022-11-25T04:18:59.832Z,3.50
2022-11-25T04:20:03.421Z,3.00
2022-11-25T04:21:06.700Z,3.00
2022-11-25T04:22:10.239Z,3.75
2022-11-25T04:23:13.887Z,3.00
2022-11-25T04:24:17.269Z,2.50
2022-11-25T04:25:20.463Z,2.75
2022-11-25T04:26:23.841Z,3.00
2022-11-25T04:27:27.144Z,2.00
2022-11-25T04:28:30.632Z,3.50
2022-11-25T04:29:34.209Z,3.50
2022-11-25T04:30:37.732Z,3.00
2022-11-25T04:31:41.085Z,3.00
2022-11-25T04:32:45.185Z,2.25
2022-11-25T04:33:52.391Z,3.00
2022-11-25T04:34:52.882Z,3.00
2022-11-25T04:35:56.465Z,3.50
2022-11-25T04:36:59.772Z,3.00
2022-11-25T04:38:02.829Z,2.75
2022-11-25T04:39:05.911Z,4.00
2022-11-25T04:40:09.309Z,4.00
2022-11-25T04:41:12.691Z,6.00
2022-11-25T04:42:15.968Z,4.75
2022-11-25T04:43:19.355Z,4.50
2022-11-25T04:44:22.555Z,5.00
2022-11-25T04:46:36.916Z,4.00
2022-11-25T04:47:40.478Z,4.00
2022-11-25T04:48:47.451Z,4.50
2022-11-25T04:49:51.256Z,4.00
2022-11-25T04:50:54.628Z,3.50
2022-11-25T04:51:58.251Z,4.50
2022-11-25T04:53:01.916Z,5.00
2022-11-25T04:54:05.410Z,4.25
2022-11-25T04:55:08.586Z,4.25
2022-11-25T04:56:12.082Z,4.00
2022-11-25T04:57:15.871Z,4.50
2022-11-25T04:58:19.259Z,3.75
2022-11-25T04:59:22.653Z,3.50
2022-11-25T05:00:26.340Z,4.00
2022-11-25T05:01:30.626Z,4.00
2022-11-25T05:02:33.987Z,4.00
2022-11-25T05:03:37.115Z,3.50
2022-11-25T05:04:41.115Z,3.00
2022-11-25T05:05:45.117Z,3.50
2022-11-25T05:06:48.511Z,4.75
2022-11-25T05:07:52.348Z,4.50
2022-11-25T05:08:56.112Z,5.00
2022-11-25T05:09:59.894Z,5.00
2022-11-25T05:11:03.484Z,5.00
2022-11-25T05:12:06.776Z,4.25
2022-11-25T05:13:10.360Z,5.00
2022-11-25T05:14:13.642Z,3.25
2022-11-25T05:15:17.154Z,3.00
2022-11-25T05:16:20.380Z,4.00
2022-11-25T05:17:23.599Z,4.00
2022-11-25T05:18:27.729Z,3.00
2022-11-25T05:19:31.194Z,2.75
2022-11-25T05:20:34.379Z,5.00
2022-11-25T05:21:37.764Z,6.75
2022-11-25T05:22:41.052Z,4.25
2022-11-25T05:23:44.254Z,3.00
2022-11-25T05:24:47.523Z,3.00
2022-11-25T05:25:50.802Z,3.00
2022-11-25T05:26:57.967Z,4.00
2022-11-25T05:28:01.367Z,4.00
2022-11-25T05:29:04.949Z,3.50
2022-11-25T05:30:12.224Z,4.50
2022-11-25T05:31:15.783Z,3.25
2022-11-25T05:32:19.097Z,3.00
2022-11-25T05:33:22.842Z,4.00
2022-11-25T05:34:26.180Z,4.00
2022-11-25T05:35:29.465Z,3.50
2022-11-25T05:36:33.271Z,3.00
2022-11-25T05:37:36.652Z,3.00
2022-11-25T05:38:40.551Z,3.00
2022-11-25T05:39:44.268Z,3.50
2022-11-25T05:40:47.838Z,3.25
2022-11-25T05:41:51.532Z,3.50
2022-11-25T05:42:55.530Z,3.50
2022-11-25T05:43:59.227Z,3.75
2022-11-25T05:45:02.426Z,4.50
2022-11-25T05:46:06.078Z,4.50
2022-11-25T05:47:09.284Z,6.00
2022-11-25T05:48:13.080Z,5.75
2022-11-25T05:49:17.606Z,4.50
2022-11-25T05:50:21.176Z,5.25
2022-11-25T05:51:24.670Z,7.00
2022-11-25T05:52:28.590Z,6.50
2022-11-25T05:53:32.366Z,4.00
2022-11-25T05:54:36.754Z,5.25
2022-11-25T05:55:40.262Z,5.50
2022-11-25T05:56:43.545Z,4.00
2022-11-25T05:57:47.039Z,4.00
2022-11-25T05:58:50.447Z,4.50
2022-11-25T05:59:54.017Z,4.50
2022-11-25T06:01:00.751Z,4.25
2022-11-25T06:02:04.164Z,4.50
2022-11-25T06:03:08.359Z,5.00
2022-11-25T06:04:11.966Z,4.00
2022-11-25T06:05:15.255Z,4.50
2022-11-25T06:06:18.534Z,4.50
2022-11-25T06:08:25.002Z,3.50
2022-11-25T06:09:28.999Z,4.00
2022-11-25T06:23:06.782Z,4.75
2022-11-25T06:24:10.700Z,4.00
2022-11-25T06:25:14.067Z,4.50
2022-11-25T06:26:17.455Z,4.75
2022-11-25T06:27:21.456Z,3.50
2022-11-25T06:28:26.795Z,2.00
2022-11-25T06:29:30.067Z,4.00
2022-11-25T06:30:34.068Z,4.75
2022-11-25T06:31:37.400Z,3.50
2022-11-25T06:32:40.433Z,4.00
2022-11-25T06:33:44.350Z,5.50
2022-11-25T06:34:47.619Z,4.75
2022-11-25T06:35:51.619Z,5.00
2022-11-25T06:36:55.004Z,4.50
2022-11-25T06:37:58.495Z,5.25
2022-11-25T06:39:02.195Z,4.75
2022-11-25T06:40:05.471Z,3.50
2022-11-25T06:41:09.089Z,4.25
2022-11-25T06:42:12.655Z,4.75
2022-11-25T06:43:16.765Z,4.50
2022-11-25T06:44:20.362Z,3.50
2022-11-25T06:45:23.741Z,4.00
2022-11-25T06:46:28.084Z,4.40
2022-11-25T06:47:31.539Z,4.50
2022-11-25T06:48:35.332Z,3.75
2022-11-25T06:49:39.028Z,3.50
2022-11-25T06:50:43.025Z,3.50
2022-11-25T06:51:46.724Z,4.00
2022-11-25T06:52:50.410Z,4.00
2022-11-25T06:53:53.819Z,4.75
2022-11-25T06:54:57.391Z,4.50
2022-11-25T06:56:00.876Z,2.50
2022-11-25T06:57:04.177Z,4.00
2022-11-25T06:58:33.942Z,5.50
2022-11-25T06:59:12.880Z,4.75
2022-11-25T07:00:16.499Z,4.50
2022-11-25T07:01:20.306Z,4.25
2022-11-25T07:02:23.516Z,4.00
2022-11-25T07:03:27.502Z,4.50
2022-11-25T07:04:31.059Z,4.00
2022-11-25T07:05:34.640Z,4.00
2022-11-25T07:06:38.532Z,3.75
2022-11-25T07:07:42.531Z,3.75
2022-11-25T07:08:46.128Z,3.00
2022-11-25T07:09:49.415Z,3.00
2022-11-25T07:10:53.007Z,4.50
2022-11-25T07:11:56.808Z,4.50
2022-11-25T07:13:00.109Z,4.50
2022-11-25T07:14:03.569Z,5.00
2022-11-25T07:15:07.471Z,4.00
2022-11-25T07:16:11.281Z,4.00
2022-11-25T07:17:14.875Z,4.50
2022-11-25T07:18:18.962Z,4.00
2022-11-25T07:19:22.149Z,4.00
2022-11-25T07:20:25.533Z,4.00
2022-11-25T07:21:29.558Z,3.50
2022-11-25T07:22:33.742Z,3.50
2022-11-25T07:23:37.228Z,3.75
2022-11-25T07:24:40.715Z,3.80
2022-11-25T07:25:44.431Z,5.00
2022-11-25T07:26:48.209Z,4.00
2022-11-25T07:27:51.600Z,5.00
2022-11-25T07:28:54.583Z,4.25
2022-11-25T07:30:29.616Z,4.50
2022-11-25T07:31:33.330Z,5.00
2022-11-25T07:32:10.468Z,4.00
2022-11-25T07:33:11.208Z,4.50
2022-11-25T07:34:14.880Z,4.25
2022-11-25T07:35:18.269Z,2.50
2022-11-25T07:36:22.265Z,2.50
2022-11-25T07:37:25.657Z,3.50
2022-11-25T07:38:29.164Z,5.00
2022-11-25T07:39:32.534Z,5.00
2022-11-25T07:40:35.714Z,5.00
2022-11-25T07:41:39.610Z,5.00
2022-11-25T07:42:43.101Z,4.50
2022-11-25T07:43:47.002Z,4.25
2022-11-25T07:44:50.388Z,4.50
2022-11-25T07:45:53.692Z,4.50
2022-11-25T07:46:57.736Z,5.00
2022-11-25T07:48:00.952Z,4.50
2022-11-25T07:49:04.240Z,3.25
2022-11-25T07:50:07.728Z,3.75
2022-11-25T07:51:11.112Z,3.50
2022-11-25T07:52:14.395Z,3.50
2022-11-25T07:53:17.691Z,3.50
2022-11-25T07:54:20.860Z,3.50
2022-11-25T07:55:23.693Z,3.25
2022-11-25T07:56:26.718Z,3.50
2022-11-25T07:57:30.412Z,4.50
2022-11-25T07:58:34.219Z,4.50
2022-11-25T07:59:38.238Z,4.00
2022-11-25T08:00:41.914Z,4.50
2022-11-25T08:01:45.856Z,3.75
2022-11-25T08:02:49.401Z,4.00
2022-11-25T08:03:52.677Z,4.00
2022-11-25T08:04:56.476Z,5.00
2022-11-25T08:05:59.785Z,5.00
2022-11-25T08:07:03.044Z,5.50
2022-11-25T08:08:06.594Z,5.00
2022-11-25T08:09:10.439Z,4.50
2022-11-25T08:10:13.751Z,5.00
2022-11-25T08:11:17.200Z,5.25
2022-11-25T08:12:20.998Z,4.50
2022-11-25T08:13:24.186Z,4.50
2022-11-25T08:14:27.461Z,4.50
2022-11-25T08:15:31.168Z,4.00
2022-11-25T08:16:35.072Z,3.50
2022-11-25T08:17:38.342Z,3.25
2022-11-25T08:18:41.722Z,4.00
2022-11-25T08:19:44.997Z,4.50
2022-11-25T08:20:48.294Z,4.50
2022-11-25T08:21:51.984Z,4.50
2022-11-25T08:22:55.307Z,4.00
2022-11-25T08:23:58.667Z,3.75
2022-11-25T08:25:01.940Z,4.25
2022-11-25T08:26:05.962Z,5.25
2022-11-25T08:27:09.540Z,5.00
2022-11-25T08:28:13.026Z,4.50
2022-11-25T08:29:16.409Z,5.00
2022-11-25T08:30:19.455Z,4.00
2022-11-25T08:31:22.739Z,5.00
2022-11-25T08:32:26.171Z,5.50
2022-11-25T08:33:29.343Z,5.50
2022-11-25T08:34:33.963Z,4.50
2022-11-25T08:35:37.654Z,4.00
2022-11-25T08:36:45.148Z,4.50
2022-11-25T08:37:46.214Z,5.50
2022-11-25T08:38:49.572Z,5.50
2022-11-25T08:39:53.851Z,9.75
2022-11-25T08:40:57.453Z,10.25
2022-11-25T08:42:01.175Z,8.00
2022-11-25T08:43:04.433Z,6.00
2022-11-25T08:44:08.132Z,5.75
2022-11-25T08:45:11.443Z,5.50
2022-11-25T08:46:14.701Z,4.50
2022-11-25T08:47:17.593Z,4.25
2022-11-25T08:48:20.186Z,5.00
2022-11-25T08:49:22.870Z,6.00
2022-11-25T08:50:25.480Z,5.75
2022-11-25T08:51:28.198Z,4.75
2022-11-25T08:52:31.213Z,5.20
2022-11-25T08:53:33.904Z,5.50
2022-11-25T08:54:36.516Z,6.00
2022-11-25T08:55:39.096Z,6.25
2022-11-25T08:56:41.604Z,6.00
2022-11-25T08:57:44.292Z,6.00
2022-11-25T08:58:46.850Z,5.50
2022-11-25T08:59:49.658Z,4.75
2022-11-25T09:00:52.368Z,5.50
2022-11-25T09:01:55.010Z,6.50
2022-11-25T09:02:57.879Z,6.75
2022-11-25T09:04:00.526Z,4.75
2022-11-25T09:05:03.217Z,4.75
2022-11-25T09:06:05.895Z,5.50
2022-11-25T09:07:08.510Z,4.80
2022-11-25T09:08:11.659Z,5.50
2022-11-25T09:09:14.381Z,4.75
2022-11-25T09:10:17.333Z,4.50
2022-11-25T09:11:20.103Z,5.50
2022-11-25T09:12:22.753Z,5.50
2022-11-25T09:13:25.548Z,6.00
2022-11-25T09:14:28.319Z,5.00
2022-11-25T09:15:31.057Z,4.50
2022-11-25T09:16:34.455Z,5.00
2022-11-25T09:17:37.246Z,4.50
2022-11-25T09:18:40.272Z,4.50
2022-11-25T09:19:43.014Z,4.50
2022-11-25T09:20:45.593Z,4.50
2022-11-25T09:21:48.270Z,4.75
2022-11-25T09:22:50.825Z,5.25
2022-11-25T09:23:53.716Z,5.00
2022-11-25T09:24:56.329Z,4.00
2022-11-25T09:25:59.001Z,4.00
2022-11-25T09:27:01.706Z,5.25
2022-11-25T09:28:04.302Z,4.40
2022-11-25T09:29:07.097Z,4.00
2022-11-25T09:30:09.854Z,4.25
2022-11-25T09:31:12.578Z,3.00
2022-11-25T09:32:15.415Z,3.00
2022-11-25T09:33:18.119Z,3.50
2022-11-25T09:34:20.804Z,4.50
2022-11-25T09:35:23.445Z,5.50
2022-11-25T09:36:26.148Z,7.00
2022-11-25T09:37:28.955Z,9.50
2022-11-25T09:38:31.527Z,7.75
2022-11-25T09:39:34.533Z,6.25
2022-11-25T09:40:37.224Z,5.50
2022-11-25T09:41:39.862Z,5.50
2022-11-25T09:42:42.503Z,5.50
2022-11-25T09:43:45.134Z,6.00
2022-11-25T09:44:47.829Z,6.50
2022-11-25T09:45:50.392Z,6.50
2022-11-25T09:46:53.043Z,6.50
2022-11-25T09:47:57.894Z,7.00
2022-11-25T09:48:59.562Z,6.00
2022-11-25T09:50:02.165Z,6.25
2022-11-25T09:51:04.829Z,7.00
2022-11-25T09:52:07.503Z,7.20
2022-11-25T09:53:10.261Z,7.50
2022-11-25T09:54:12.952Z,6.50
2022-11-25T09:55:15.699Z,6.50
2022-11-25T09:56:18.479Z,7.00
2022-11-25T09:57:21.152Z,6.50
2022-11-25T09:58:23.857Z,6.50
2022-11-25T09:59:26.374Z,6.50
2022-11-25T10:00:29.134Z,6.50
2022-11-25T10:01:31.752Z,6.00
2022-11-25T10:02:34.774Z,6.25
2022-11-25T10:03:37.647Z,5.50
2022-11-25T10:04:40.545Z,5.00
2022-11-25T10:05:43.364Z,6.00
2022-11-25T10:06:48.380Z,6.60
2022-11-25T10:07:49.994Z,6.50
2022-11-25T10:08:52.603Z,6.40
2022-11-25T10:09:55.232Z,7.50
2022-11-25T10:10:57.866Z,7.50
2022-11-25T10:12:00.452Z,7.00
2022-11-25T10:13:03.145Z,6.00
2022-11-25T10:14:05.867Z,6.50
2022-11-25T10:15:08.452Z,6.50
2022-11-25T10:16:11.483Z,5.75
2022-11-25T10:17:14.232Z,5.50
2022-11-25T10:18:16.885Z,6.50
2022-11-25T10:19:19.560Z,7.50
2022-11-25T10:20:22.185Z,8.50
2022-11-25T10:21:25.010Z,8.50
2022-11-25T10:22:27.650Z,7.50
2022-11-25T10:23:30.263Z,7.00
2022-11-25T10:24:35.962Z,6.50
2022-11-25T10:25:37.115Z,5.75
2022-11-25T10:26:40.030Z,5.50
2022-11-25T10:27:42.625Z,6.80
2022-11-25T10:28:45.385Z,6.50
2022-11-25T10:29:48.153Z,6.25
2022-11-25T10:30:51.132Z,5.80
2022-11-25T10:31:55.846Z,6.00
2022-11-25T10:33:02.367Z,8.75
2022-11-25T10:34:02.423Z,9.00
2022-11-25T10:35:05.054Z,8.50
2022-11-25T10:36:07.659Z,7.00
2022-11-25T10:37:10.388Z,7.00
2022-11-25T10:38:18.637Z,6.40
2022-11-25T10:39:17.050Z,6.00
2022-11-25T10:40:19.588Z,6.50
2022-11-25T10:41:22.293Z,5.75
2022-11-25T10:42:25.188Z,6.00
2022-11-25T10:43:31.863Z,7.00
2022-11-25T10:44:34.080Z,7.50
2022-11-25T10:45:36.961Z,6.00
2022-11-25T10:47:11.880Z,6.50
2022-11-25T10:47:44.167Z,6.25
2022-11-25T10:48:47.029Z,6.00
2022-11-25T10:49:49.952Z,6.25
2022-11-25T10:50:52.882Z,6.50
2022-11-25T10:51:55.739Z,5.50
2022-11-25T10:52:59.526Z,5.00
2022-11-25T10:54:02.169Z,6.00
2022-11-25T10:55:04.886Z,6.00
2022-11-25T10:56:07.557Z,6.50
2022-11-25T10:57:10.131Z,6.75
2022-11-25T10:58:12.832Z,7.25
2022-11-25T10:59:15.396Z,7.00
2022-11-25T11:00:18.059Z,6.50
2022-11-25T11:01:20.787Z,6.50
2022-11-25T11:02:23.569Z,6.75
2022-11-25T11:03:26.358Z,5.75
2022-11-25T11:04:28.913Z,7.00
2022-11-25T11:05:31.690Z,7.25
2022-11-25T11:06:34.633Z,5.75
2022-11-25T11:07:37.701Z,6.25
2022-11-25T11:08:40.661Z,7.25
2022-11-25T11:09:43.304Z,6.00
2022-11-25T11:10:46.137Z,8.25
2022-11-25T11:11:49.158Z,7.50
2022-11-25T11:12:51.998Z,6.50
2022-11-25T11:13:54.690Z,7.00
2022-11-25T11:14:57.370Z,6.50
2022-11-25T11:16:00.348Z,6.50
2022-11-25T11:17:04.868Z,7.50
2022-11-25T11:18:07.467Z,6.25
2022-11-25T11:19:10.595Z,6.25
2022-11-25T11:20:13.187Z,6.50
2022-11-25T11:21:15.942Z,8.00
2022-11-25T11:22:18.930Z,7.25
2022-11-25T11:23:21.609Z,7.00
2022-11-25T11:24:24.430Z,7.50
2022-11-25T11:25:26.973Z,7.00
2022-11-25T11:26:29.610Z,7.00
2022-11-25T11:27:32.214Z,7.50
2022-11-25T11:28:34.774Z,7.00
2022-11-25T11:29:37.955Z,8.00
2022-11-25T11:30:40.906Z,8.00
2022-11-25T11:31:43.582Z,7.50
2022-11-25T11:32:46.297Z,7.50
2022-11-25T11:33:48.965Z,6.00
2022-11-25T11:34:51.807Z,6.50
2022-11-25T11:35:54.611Z,7.50
2022-11-25T11:36:57.414Z,7.00
2022-11-25T11:38:00.121Z,7.50
2022-11-25T11:39:02.772Z,8.25
2022-11-25T11:40:05.975Z,7.00
2022-11-25T11:41:08.795Z,6.75
2022-11-25T11:42:11.608Z,6.00
2022-11-25T11:43:14.239Z,6.25
2022-11-25T11:44:16.816Z,8.00
2022-11-25T11:45:19.522Z,9.00
2022-11-25T11:46:22.223Z,7.00
2022-11-25T11:47:24.866Z,7.00
2022-11-25T11:48:27.426Z,7.00
2022-11-25T11:49:31.189Z,7.50
2022-11-25T11:50:33.994Z,8.00
2022-11-25T11:51:36.616Z,7.00
2022-11-25T11:52:39.291Z,7.00
2022-11-25T11:53:41.837Z,7.00
2022-11-25T11:54:44.561Z,6.50
2022-11-25T11:56:00.265Z,6.50
2022-11-25T11:56:55.049Z,6.50
2022-11-25T11:57:54.857Z,7.25
2022-11-25T11:58:57.663Z,7.50
2022-11-25T12:00:00.338Z,7.50
2022-11-25T12:01:02.935Z,7.50
2022-11-25T12:02:05.772Z,8.25
2022-11-25T12:03:08.437Z,8.00
2022-11-25T12:04:10.959Z,8.00
2022-11-25T12:05:13.465Z,7.00
2022-11-25T12:06:16.602Z,6.50
2022-11-25T12:07:19.370Z,12.25
2022-11-25T12:08:22.027Z,12.00
2022-11-25T12:09:24.603Z,7.00
2022-11-25T12:10:27.200Z,7.25
2022-11-25T12:11:30.020Z,7.50
2022-11-25T12:12:32.683Z,7.20
2022-11-25T12:13:35.448Z,8.50
2022-11-25T12:14:38.680Z,8.00
2022-11-25T12:15:41.559Z,6.50
2022-11-25T12:16:44.332Z,6.40
2022-11-25T12:17:46.997Z,7.75
2022-11-25T12:18:49.907Z,8.00
2022-11-25T12:19:52.514Z,8.25
2022-11-25T12:20:55.641Z,9.00
2022-11-25T12:21:58.314Z,7.00
2022-11-25T12:23:00.916Z,6.75
2022-11-25T12:24:03.614Z,7.00
2022-11-25T12:25:06.486Z,7.50
2022-11-25T12:26:09.413Z,7.50
2022-11-25T12:27:12.510Z,7.75
2022-11-25T12:28:15.606Z,6.75
2022-11-25T12:29:18.164Z,6.50
2022-11-25T12:30:20.957Z,5.75
2022-11-25T12:31:23.784Z,7.50
2022-11-25T12:32:26.409Z,8.50
2022-11-25T12:33:29.049Z,8.00
2022-11-25T12:34:31.713Z,6.00
2022-11-25T12:35:34.430Z,5.50
2022-11-25T12:36:37.047Z,6.50
2022-11-25T12:37:39.937Z,6.50
2022-11-25T12:38:42.791Z,6.00
2022-11-25T12:39:45.658Z,5.60
2022-11-25T12:40:48.529Z,7.00
2022-11-25T12:41:51.461Z,7.80
2022-11-25T12:42:54.410Z,7.00
2022-11-25T12:43:57.186Z,7.00
2022-11-25T12:45:00.106Z,7.00
2022-11-25T12:46:02.727Z,6.25
2022-11-25T12:47:05.377Z,5.50
2022-11-25T12:48:08.152Z,6.00
2022-11-25T12:49:10.765Z,7.00
2022-11-25T12:50:13.429Z,7.00
2022-11-25T12:51:16.007Z,6.00
2022-11-25T12:52:18.545Z,5.75
2022-11-25T12:53:21.298Z,5.00
2022-11-25T12:54:23.873Z,6.50
2022-11-25T12:55:26.435Z,7.00
2022-11-25T12:56:28.916Z,6.75
2022-11-25T12:57:31.858Z,6.00
2022-11-25T12:58:34.885Z,7.75
2022-11-25T12:59:37.807Z,7.50
2022-11-25T13:00:41.988Z,6.75
2022-11-25T13:01:44.827Z,7.00
2022-11-25T13:02:47.838Z,6.00
2022-11-25T13:03:50.760Z,7.00
2022-11-25T13:04:53.677Z,7.00
2022-11-25T13:05:56.541Z,7.50
2022-11-25T13:06:59.375Z,8.00
2022-11-25T13:08:02.190Z,6.50
2022-11-25T13:09:05.071Z,6.50
2022-11-25T13:10:07.639Z,6.75
2022-11-25T13:11:10.888Z,7.50
2022-11-25T13:12:14.181Z,6.75
2022-11-25T13:13:18.687Z,6.50
2022-11-25T13:14:21.675Z,6.25
2022-11-25T13:15:25.026Z,7.50
2022-11-25T13:16:28.519Z,7.25
2022-11-25T13:17:31.967Z,6.50
2022-11-25T13:18:34.977Z,7.00
2022-11-25T13:19:37.938Z,7.75
2022-11-25T13:20:40.873Z,7.00
2022-11-25T13:21:43.612Z,7.00
2022-11-25T13:22:46.252Z,6.40
2022-11-25T13:23:49.489Z,5.75
2022-11-25T13:24:52.687Z,6.50
2022-11-25T13:25:55.272Z,6.75
2022-11-25T13:26:57.864Z,6.75
2022-11-25T13:28:00.526Z,7.00
2022-11-25T13:29:03.232Z,7.00
2022-11-25T13:30:05.981Z,7.00
2022-11-25T13:31:08.715Z,7.00
2022-11-25T13:32:11.442Z,7.00
2022-11-25T13:33:14.067Z,8.00
2022-11-25T13:34:16.736Z,9.50
2022-11-25T13:35:19.458Z,9.50
2022-11-25T13:36:22.102Z,8.50
2022-11-25T13:37:24.767Z,8.60
2022-11-25T13:38:27.323Z,8.75
2022-11-25T13:39:29.955Z,7.75
2022-11-25T13:40:32.687Z,6.50
2022-11-25T13:41:35.571Z,6.00
2022-11-25T13:42:38.238Z,6.50
2022-11-25T13:43:40.912Z,7.50
2022-11-25T13:44:43.463Z,8.50
2022-11-25T13:45:46.252Z,8.75
2022-11-25T13:46:48.858Z,8.00
2022-11-25T13:47:51.446Z,8.00
2022-11-25T13:48:53.992Z,7.00
2022-11-25T13:49:56.632Z,7.80
2022-11-25T13:51:14.424Z,6.50
2022-11-25T13:52:03.212Z,7.00
2022-11-25T13:53:06.089Z,8.50
2022-11-25T13:54:08.607Z,7.00
2022-11-25T13:55:11.255Z,7.50
2022-11-25T13:56:13.991Z,8.00
2022-11-25T13:57:16.503Z,7.50
2022-11-25T13:58:19.196Z,7.00
2022-11-25T13:59:21.672Z,6.50
2022-11-25T14:00:24.196Z,7.50
2022-11-25T14:01:30.256Z,8.25
2022-11-25T14:02:30.859Z,7.50
2022-11-25T14:03:33.550Z,8.00
2022-11-25T14:04:36.599Z,8.00
2022-11-25T14:05:39.656Z,7.00
2022-11-25T14:06:42.462Z,7.75
2022-11-25T14:07:45.349Z,7.50
2022-11-25T14:08:48.248Z,7.25
2022-11-25T14:09:51.455Z,6.75
2022-11-25T14:10:54.329Z,6.50
2022-11-25T14:11:57.303Z,7.75
2022-11-25T14:13:00.110Z,8.00
2022-11-25T14:14:02.971Z,7.50
2022-11-25T14:15:05.933Z,7.75
2022-11-25T14:16:08.792Z,7.50
2022-11-25T14:17:11.939Z,8.00
2022-11-25T14:18:14.655Z,7.50
2022-11-25T14:19:49.645Z,7.75
2022-11-25T14:20:21.147Z,8.00
2022-11-25T14:21:23.760Z,8.00
2022-11-25T14:22:26.417Z,7.00